Time;durP1;ratioP1;P1;durP2;ratioP2;P2;SDS_P1;SDS_P2;PMS_P1;PMS_P2;Temp;Humidity;BMP_temperature;BMP_pressure;BME280_temperature;BME280_humidity;BME280_pressure;Samples;Min_cycle;Max_cycle;Signal;HPM_P1;HPM_P2
2022/07/02 00:00:01;;;;;;;3.78;0.90;;;14.40;99.90;;;;;;5010004;28;20536;-68
2022/07/02 00:02:27;;;;;;;4.63;2.15;;;14.30;99.90;;;;;;5009771;28;20037;-66
2022/07/02 00:05:04;;;;;;;6.45;1.08;;;14.40;99.90;;;;;;5011052;28;20421;-67
2022/07/02 00:07:31;;;;;;;2.25;0.50;;;14.50;99.90;;;;;;5006384;28;20022;-66
2022/07/02 00:09:58;;;;;;;7.40;0.68;;;14.40;99.90;;;;;;5010917;28;20041;-67
2022/07/02 00:12:24;;;;;;;6.15;1.40;;;14.40;99.90;;;;;;5002350;28;20229;-67
2022/07/02 00:14:55;;;;;;;4.63;0.60;;;14.40;99.90;;;;;;5009631;28;20022;-67
2022/07/02 00:17:21;;;;;;;3.42;0.85;;;14.40;99.90;;;;;;5011499;28;20048;-68
2022/07/02 00:19:48;;;;;;;3.47;0.55;;;14.40;99.90;;;;;;5008487;28;20409;-68
2022/07/02 00:22:15;;;;;;;3.88;0.60;;;14.40;99.90;;;;;;5010527;28;20041;-67
2022/07/02 00:24:41;;;;;;;8.23;1.48;;;14.40;99.90;;;;;;5009273;28;20038;-67
2022/07/02 00:27:19;;;;;;;5.20;1.13;;;14.50;99.90;;;;;;5009971;28;20030;-66
2022/07/02 00:30:01;;;;;;;3.20;0.52;;;14.50;99.90;;;;;;5005487;28;20056;-67
2022/07/02 00:32:29;;;;;;;5.32;0.60;;;14.40;99.90;;;;;;5007867;28;20061;-66
2022/07/02 00:34:57;;;;;;;6.18;0.70;;;14.30;99.90;;;;;;5009326;28;20113;-66
2022/07/02 00:37:25;;;;;;;3.63;0.50;;;14.40;99.90;;;;;;5010348;28;20466;-66
2022/07/02 00:39:51;;;;;;;3.33;0.63;;;14.30;99.90;;;;;;5009335;28;20052;-66
2022/07/02 00:42:19;;;;;;;2.65;0.90;;;14.20;99.90;;;;;;5010529;28;20478;-69
2022/07/02 00:44:47;;;;;;;2.47;0.95;;;14.20;99.90;;;;;;5007163;28;20080;-67
2022/07/02 00:47:15;;;;;;;4.50;0.73;;;14.10;99.90;;;;;;5010509;28;20026;-67
2022/07/02 00:49:40;;;;;;;6.88;0.73;;;13.90;99.90;;;;;;5007861;28;20030;-67
2022/07/02 00:52:07;;;;;;;4.70;0.70;;;13.90;99.90;;;;;;5010887;28;20423;-67
2022/07/02 00:54:35;;;;;;;4.93;1.33;;;13.90;99.90;;;;;;5007013;28;20049;-67
2022/07/02 00:57:01;;;;;;;3.13;0.52;;;13.90;99.90;;;;;;5010655;28;20072;-68
2022/07/02 00:59:27;;;;;;;3.58;0.65;;;13.90;99.90;;;;;;5008164;28;20029;-68
2022/07/02 01:01:53;;;;;;;7.38;0.90;;;13.90;99.90;;;;;;5010660;28;20018;-68
2022/07/02 01:04:19;;;;;;;4.00;0.90;;;13.90;99.90;;;;;;5008851;28;20034;-68
2022/07/02 01:06:47;;;;;;;5.18;1.38;;;13.90;99.90;;;;;;5008111;28;20029;-67
2022/07/02 01:12:00;;;;;;;5.03;0.88;;;13.90;99.90;;;;;;5002334;28;20036;-68
2022/07/02 01:14:27;;;;;;;3.75;0.77;;;13.80;99.90;;;;;;5009500;28;20038;-67
2022/07/02 01:16:53;;;;;;;4.95;0.80;;;13.80;99.90;;;;;;5000420;28;20389;-67
2022/07/02 01:19:21;;;;;;;5.63;1.45;;;13.70;99.90;;;;;;5010499;28;20437;-67
2022/07/02 01:22:16;;;;;;;6.68;0.70;;;13.70;99.90;;;;;;5006912;28;20154;-67
2022/07/02 01:24:43;;;;;;;8.00;1.38;;;13.50;99.90;;;;;;5006221;28;20061;-66
2022/07/02 01:27:09;;;;;;;2.28;0.63;;;13.40;99.90;;;;;;5009864;28;20064;-68
2022/07/02 01:29:35;;;;;;;1.95;0.60;;;13.20;99.90;;;;;;5007688;28;20058;-67
2022/07/02 01:32:01;;;;;;;8.70;1.42;;;13.10;99.90;;;;;;5009072;28;20042;-67
2022/07/02 01:34:28;;;;;;;5.35;0.70;;;13.00;99.90;;;;;;5009011;28;20080;-68
2022/07/02 01:36:53;;;;;;;3.08;1.00;;;12.90;99.90;;;;;;5008878;28;20034;-67
2022/07/02 01:39:25;;;;;;;5.38;0.60;;;12.80;99.90;;;;;;5009949;28;20453;-67
2022/07/02 01:41:51;;;;;;;3.35;0.68;;;12.70;99.90;;;;;;5007486;28;20037;-67
2022/07/02 01:44:17;;;;;;;6.75;0.82;;;12.70;99.90;;;;;;5008440;28;20018;-67
2022/07/02 01:46:45;;;;;;;1.27;0.63;;;12.70;99.90;;;;;;5006494;28;20121;-67
2022/07/02 01:49:11;;;;;;;2.60;1.33;;;12.70;99.90;;;;;;5009746;28;20033;-67
2022/07/02 01:51:37;;;;;;;5.95;0.80;;;12.60;99.90;;;;;;5007972;28;20042;-67
2022/07/02 01:54:03;;;;;;;11.15;0.90;;;12.80;99.90;;;;;;5008879;28;20045;-67
2022/07/02 01:56:34;;;;;;;3.60;1.02;;;12.70;99.90;;;;;;5006850;28;20469;-65
2022/07/02 01:59:00;;;;;;;9.63;1.08;;;12.80;99.90;;;;;;5007767;28;20084;-66
2022/07/02 02:01:26;;;;;;;6.35;0.70;;;12.80;99.90;;;;;;5008244;28;20447;-66
2022/07/02 02:03:51;;;;;;;4.78;0.82;;;12.80;99.90;;;;;;5006906;28;20048;-67
2022/07/02 02:06:17;;;;;;;7.13;0.82;;;12.90;99.90;;;;;;5000887;28;20026;-66
2022/07/02 02:08:43;;;;;;;2.78;0.40;;;13.00;99.90;;;;;;5007910;28;20034;-66
2022/07/02 02:11:09;;;;;;;4.70;0.52;;;12.90;99.90;;;;;;5008976;28;20029;-67
2022/07/02 02:13:34;;;;;;;5.03;0.90;;;12.90;99.90;;;;;;5007905;28;20038;-66
2022/07/02 02:16:00;;;;;;;5.03;1.80;;;13.00;99.90;;;;;;5008360;28;20026;-66
2022/07/02 02:18:26;;;;;;;3.03;0.70;;;12.90;99.90;;;;;;5009340;28;20437;-66
2022/07/02 02:20:51;;;;;;;6.05;0.85;;;12.90;99.90;;;;;;5006606;28;20076;-66
2022/07/02 02:23:17;;;;;;;2.83;0.90;;;12.80;99.90;;;;;;5009498;28;20343;-66
2022/07/02 02:25:42;;;;;;;4.60;1.02;;;12.90;99.90;;;;;;5006688;28;20048;-66
2022/07/02 02:28:08;;;;;;;4.38;0.65;;;12.90;99.90;;;;;;5005071;28;20393;-66
2022/07/02 02:30:34;;;;;;;6.93;1.00;;;13.00;99.90;;;;;;5006957;28;20022;-66
2022/07/02 02:32:59;;;;;;;3.60;0.80;;;13.00;99.90;;;;;;5009094;28;20450;-67
2022/07/02 02:35:25;;;;;;;4.45;0.75;;;13.10;99.90;;;;;;5008013;28;20022;-68
2022/07/02 02:37:51;;;;;;;2.38;0.60;;;13.20;99.90;;;;;;5007011;28;20556;-67
2022/07/02 02:40:16;;;;;;;4.63;0.90;;;13.30;99.90;;;;;;5008185;28;20497;-66
2022/07/02 02:42:42;;;;;;;3.85;0.95;;;13.50;99.90;;;;;;5007157;28;20096;-66
2022/07/02 02:45:08;;;;;;;4.50;0.77;;;13.70;99.90;;;;;;5009000;28;20038;-67
2022/07/02 02:47:33;;;;;;;5.70;0.55;;;13.80;99.90;;;;;;5006742;28;20033;-67
2022/07/02 02:49:59;;;;;;;1.38;0.50;;;13.90;99.90;;;;;;5008460;28;20474;-67
2022/07/02 02:52:25;;;;;;;6.35;0.50;;;14.00;99.90;;;;;;5008951;28;20382;-67
2022/07/02 02:54:50;;;;;;;6.43;0.90;;;14.00;99.90;;;;;;5007249;28;20307;-67
2022/07/02 02:57:16;;;;;;;2.10;0.55;;;14.10;99.90;;;;;;5007365;28;20691;-68
2022/07/02 02:59:42;;;;;;;4.18;1.23;;;14.10;99.90;;;;;;5006400;28;20393;-67
2022/07/02 03:02:07;;;;;;;3.03;0.70;;;14.10;99.90;;;;;;5007775;28;20037;-68
2022/07/02 03:04:33;;;;;;;3.53;0.63;;;14.10;99.90;;;;;;5007271;28;20113;-67
2022/07/02 03:06:59;;;;;;;3.13;0.40;;;14.20;99.90;;;;;;5008607;28;20478;-67
2022/07/02 03:09:25;;;;;;;6.60;1.00;;;14.20;99.90;;;;;;5010725;28;20030;-67
2022/07/02 03:11:50;;;;;;;3.25;0.70;;;14.20;99.90;;;;;;5009712;28;20116;-68
2022/07/02 03:14:16;;;;;;;4.65;0.98;;;14.30;99.90;;;;;;5012234;28;20037;-68
2022/07/02 03:16:41;;;;;;;5.18;0.85;;;14.30;99.90;;;;;;5010052;28;20026;-67
2022/07/02 03:19:07;;;;;;;4.43;1.15;;;14.20;99.90;;;;;;5012380;28;20104;-67
2022/07/02 03:21:33;;;;;;;3.40;0.68;;;14.30;99.90;;;;;;5010681;28;20538;-67
2022/07/02 03:23:58;;;;;;;6.03;0.57;;;14.30;99.90;;;;;;5011106;28;20101;-67
2022/07/02 03:26:24;;;;;;;5.65;0.90;;;14.30;99.90;;;;;;5011583;28;20092;-67
2022/07/02 03:28:49;;;;;;;3.55;0.68;;;14.30;99.90;;;;;;5008954;28;20029;-67
2022/07/02 03:31:15;;;;;;;4.63;0.70;;;14.30;99.90;;;;;;5012068;28;20045;-67
2022/07/02 03:33:41;;;;;;;3.80;1.15;;;14.30;99.90;;;;;;5010590;28;20099;-68
2022/07/02 03:36:06;;;;;;;6.32;0.65;;;14.40;99.90;;;;;;5011405;28;20038;-67
2022/07/02 03:38:32;;;;;;;4.43;0.50;;;14.40;99.90;;;;;;5008311;28;20030;-69
2022/07/02 03:40:58;;;;;;;3.40;0.98;;;14.40;99.90;;;;;;5011628;28;20120;-67
2022/07/02 03:43:23;;;;;;;4.95;1.20;;;14.30;99.90;;;;;;5011248;28;20034;-66
2022/07/02 03:45:49;;;;;;;2.53;0.40;;;14.20;99.90;;;;;;5010105;28;20029;-67
2022/07/02 03:48:15;;;;;;;4.97;0.50;;;14.00;99.90;;;;;;5010082;28;20040;-67
2022/07/02 03:50:42;;;;;;;6.70;0.63;;;13.90;99.90;;;;;;5009402;28;20026;-67
2022/07/02 03:53:08;;;;;;;3.35;0.88;;;13.80;99.90;;;;;;5011494;28;20124;-67
2022/07/02 03:55:34;;;;;;;3.60;0.90;;;13.80;99.90;;;;;;5010069;28;20040;-67
2022/07/02 03:58:00;;;;;;;9.35;1.00;;;13.70;99.90;;;;;;5011448;28;20462;-67
2022/07/02 04:00:25;;;;;;;5.43;0.82;;;13.70;99.90;;;;;;5008380;28;20034;-67
2022/07/02 04:02:51;;;;;;;6.15;0.90;;;13.60;99.90;;;;;;5009962;28;20069;-67
2022/07/02 04:05:17;;;;;;;2.33;0.50;;;13.60;99.90;;;;;;5011102;28;20433;-66
2022/07/02 04:07:42;;;;;;;2.95;0.52;;;13.60;99.90;;;;;;5009460;28;20112;-67
2022/07/02 04:10:08;;;;;;;4.85;0.70;;;13.70;99.90;;;;;;5009249;28;20078;-67
2022/07/02 04:12:34;;;;;;;3.90;0.63;;;13.70;99.90;;;;;;5009391;28;20026;-66
2022/07/02 04:15:00;;;;;;;4.68;0.60;;;13.80;99.90;;;;;;5011651;28;20018;-66
2022/07/02 04:17:25;;;;;;;3.88;0.50;;;13.90;99.90;;;;;;5011036;28;20021;-67
2022/07/02 04:19:51;;;;;;;6.93;0.93;;;13.90;99.90;;;;;;5007196;28;20037;-66
2022/07/02 04:22:17;;;;;;;1.33;0.57;;;14.00;99.90;;;;;;5008355;28;20478;-66
2022/07/02 04:24:42;;;;;;;4.30;0.50;;;14.10;99.90;;;;;;5009389;28;20042;-67
2022/07/02 04:27:08;;;;;;;2.22;0.35;;;14.20;99.90;;;;;;4999255;28;20030;-66
2022/07/02 04:29:34;;;;;;;3.13;1.27;;;14.30;99.90;;;;;;4996889;28;20433;-66
2022/07/02 04:32:00;;;;;;;3.05;0.30;;;14.30;99.90;;;;;;5004384;28;20047;-67
2022/07/02 04:34:25;;;;;;;5.13;0.57;;;14.20;99.90;;;;;;5006705;28;20026;-66
2022/07/02 04:36:51;;;;;;;4.47;0.57;;;14.10;99.90;;;;;;5009387;28;20068;-66
2022/07/02 04:39:16;;;;;;;2.33;0.40;;;14.20;99.90;;;;;;5010724;28;20072;-66
2022/07/02 04:41:42;;;;;;;2.92;0.90;;;14.20;99.90;;;;;;5008919;28;20076;-66
2022/07/02 04:44:08;;;;;;;4.05;0.57;;;14.20;99.90;;;;;;5008346;28;20046;-67
2022/07/02 04:46:33;;;;;;;4.10;0.50;;;14.20;99.90;;;;;;5007200;28;20033;-67
2022/07/02 04:48:59;;;;;;;5.38;0.60;;;14.20;99.90;;;;;;5000273;28;20040;-68
2022/07/02 04:51:25;;;;;;;5.15;0.85;;;14.20;99.90;;;;;;5011079;28;20355;-68
2022/07/02 04:53:50;;;;;;;2.85;0.43;;;14.30;99.90;;;;;;5001356;28;20577;-67
2022/07/02 04:56:16;;;;;;;4.97;0.43;;;14.40;99.90;;;;;;5001192;28;20466;-67
2022/07/02 04:58:42;;;;;;;1.75;0.28;;;14.50;99.90;;;;;;5003051;28;20076;-68
2022/07/02 05:01:07;;;;;;;2.63;0.60;;;14.70;99.90;;;;;;5003950;28;20514;-68
2022/07/02 05:03:33;;;;;;;1.52;0.60;;;14.80;99.90;;;;;;5004830;28;20052;-68
2022/07/02 05:05:59;;;;;;;9.40;0.85;;;14.80;99.90;;;;;;5003146;28;20026;-68
2022/07/02 05:08:26;;;;;;;2.85;0.38;;;14.80;99.90;;;;;;5010760;28;20381;-68
2022/07/02 05:10:53;;;;;;;3.70;0.70;;;14.80;99.90;;;;;;5008814;28;20033;-68
2022/07/02 05:13:19;;;;;;;2.75;0.50;;;14.90;99.90;;;;;;5008927;28;20036;-67
2022/07/02 05:15:45;;;;;;;2.08;0.40;;;14.80;99.90;;;;;;5004396;28;20041;-66
2022/07/02 05:18:11;;;;;;;4.13;0.55;;;14.80;99.90;;;;;;5007370;28;20022;-66
2022/07/02 05:20:37;;;;;;;2.42;0.28;;;14.80;99.90;;;;;;5002390;28;20054;-66
2022/07/02 05:23:03;;;;;;;1.92;0.20;;;14.90;99.90;;;;;;5010429;28;20555;-66
2022/07/02 05:25:28;;;;;;;2.08;0.35;;;15.00;99.90;;;;;;5008602;28;20026;-67
2022/07/02 05:27:54;;;;;;;4.75;0.52;;;15.10;99.90;;;;;;5009484;28;20064;-67
2022/07/02 05:30:20;;;;;;;3.25;0.30;;;15.20;99.90;;;;;;5009372;28;20029;-67
2022/07/02 05:32:45;;;;;;;2.38;0.30;;;15.30;99.90;;;;;;5006114;28;20066;-67
2022/07/02 05:35:11;;;;;;;3.00;0.60;;;15.30;99.90;;;;;;5008872;28;20033;-67
2022/07/02 05:37:37;;;;;;;3.33;0.30;;;15.30;99.90;;;;;;5004567;28;20033;-66
2022/07/02 05:40:03;;;;;;;2.17;0.40;;;15.20;99.90;;;;;;5010276;28;20510;-67
2022/07/02 05:42:29;;;;;;;4.75;0.40;;;15.20;99.90;;;;;;5004293;28;20030;-68
2022/07/02 05:44:55;;;;;;;8.45;0.60;;;15.20;99.90;;;;;;5000825;28;20030;-68
2022/07/02 05:47:21;;;;;;;4.20;0.40;;;15.20;99.90;;;;;;5008300;28;20037;-67
2022/07/02 05:49:46;;;;;;;4.03;0.50;;;15.20;99.90;;;;;;5007775;28;20099;-67
2022/07/02 05:52:14;;;;;;;1.65;0.40;;;15.20;99.90;;;;;;5009353;28;20112;-67
2022/07/02 05:54:40;;;;;;;2.85;0.38;;;15.30;99.90;;;;;;5008020;28;20124;-67
2022/07/02 05:57:05;;;;;;;2.88;0.40;;;15.30;99.90;;;;;;5006696;28;20545;-61
2022/07/02 05:59:31;;;;;;;3.70;0.57;;;15.40;99.90;;;;;;5007338;28;20129;-67
2022/07/02 06:01:57;;;;;;;2.25;0.57;;;15.40;99.90;;;;;;5009844;28;20029;-68
2022/07/02 06:04:22;;;;;;;4.30;0.60;;;15.40;99.90;;;;;;5007600;28;20029;-68
2022/07/02 06:09:32;;;;;;;3.17;0.75;;;15.50;99.90;;;;;;5005576;28;20044;-67
2022/07/02 06:11:58;;;;;;;3.88;0.93;;;15.50;99.90;;;;;;5002777;28;20489;-68
2022/07/02 06:14:23;;;;;;;2.08;0.32;;;15.50;99.90;;;;;;5009242;28;20030;-69
2022/07/02 06:16:49;;;;;;;2.53;0.30;;;15.60;99.90;;;;;;5007790;28;20033;-69
2022/07/02 06:19:14;;;;;;;2.63;0.70;;;15.60;99.90;;;;;;5006613;28;20045;-68
2022/07/02 06:21:40;;;;;;;3.40;0.47;;;15.50;99.90;;;;;;5007462;28;20030;-68
2022/07/02 06:24:09;;;;;;;3.90;0.40;;;15.60;99.90;;;;;;5004940;28;20511;-68
2022/07/02 06:26:35;;;;;;;2.30;0.65;;;15.70;99.90;;;;;;5007489;28;20137;-67
2022/07/02 06:29:01;;;;;;;3.60;0.47;;;15.70;99.90;;;;;;5008111;28;20078;-67
2022/07/02 06:31:26;;;;;;;4.20;0.90;;;15.80;99.90;;;;;;5009297;28;20383;-69
2022/07/02 06:33:52;;;;;;;1.63;0.70;;;15.80;99.90;;;;;;5002331;28;20566;-68
2022/07/02 06:36:21;;;;;;;4.60;0.60;;;15.90;99.90;;;;;;5004087;28;20274;-67
2022/07/02 06:38:47;;;;;;;1.77;0.30;;;15.90;99.90;;;;;;5004872;28;20124;-68
2022/07/02 06:43:58;;;;;;;4.20;0.40;;;15.90;99.90;;;;;;5003782;28;20410;-67
2022/07/02 06:46:24;;;;;;;2.45;0.50;;;15.80;99.90;;;;;;5012307;28;20022;-67
2022/07/02 06:48:49;;;;;;;1.95;0.45;;;15.80;99.90;;;;;;5007557;28;20034;-67
2022/07/02 06:51:15;;;;;;;2.33;0.38;;;15.80;99.90;;;;;;5010366;28;20014;-66
2022/07/02 06:53:41;;;;;;;3.75;0.52;;;15.80;99.90;;;;;;5008085;28;22027;-66
2022/07/02 06:56:07;;;;;;;1.00;0.15;;;15.80;99.90;;;;;;5012409;28;20026;-66
2022/07/02 06:58:33;;;;;;;2.10;0.60;;;15.80;99.90;;;;;;5006669;28;20037;-67
2022/07/02 07:00:58;;;;;;;5.38;0.40;;;15.90;99.90;;;;;;5013977;28;20451;-67
2022/07/02 07:03:24;;;;;;;2.70;0.63;;;15.90;99.90;;;;;;5003894;28;20073;-67
2022/07/02 07:05:52;;;;;;;5.30;0.40;;;15.90;99.90;;;;;;5010241;28;20022;-66
2022/07/02 07:08:17;;;;;;;1.40;0.93;;;16.00;99.90;;;;;;5012417;28;20496;-66
2022/07/02 07:10:43;;;;;;;3.22;0.57;;;16.00;99.90;;;;;;5014238;28;20029;-66
2022/07/02 07:13:09;;;;;;;1.33;0.52;;;16.00;99.90;;;;;;5003124;28;20038;-66
2022/07/02 07:15:35;;;;;;;2.35;0.57;;;16.00;99.90;;;;;;5002655;28;20026;-66
2022/07/02 07:18:00;;;;;;;2.45;0.60;;;16.00;99.90;;;;;;5006591;28;20109;-66
2022/07/02 07:20:29;;;;;;;1.75;0.38;;;16.00;99.90;;;;;;5011938;28;20474;-67
2022/07/02 07:22:59;;;;;;;1.38;0.40;;;15.90;99.90;;;;;;5011895;28;20057;-67
2022/07/02 07:25:26;;;;;;;2.20;0.20;;;16.00;99.90;;;;;;5009952;28;20033;-67
2022/07/02 07:27:51;;;;;;;1.02;0.20;;;16.00;99.90;;;;;;5004244;28;20072;-67
2022/07/02 07:30:17;;;;;;;2.17;0.30;;;16.10;99.90;;;;;;5010621;28;20034;-67
2022/07/02 07:32:43;;;;;;;1.90;0.25;;;16.20;99.90;;;;;;5007200;28;20068;-67
2022/07/02 07:35:10;;;;;;;1.65;0.38;;;16.30;99.90;;;;;;5006532;28;20031;-66
2022/07/02 07:37:36;;;;;;;0.90;0.22;;;16.40;99.90;;;;;;5008500;28;20066;-67
2022/07/02 07:40:07;;;;;;;1.30;0.30;;;16.50;99.90;;;;;;5012232;28;20026;-67
2022/07/02 07:42:33;;;;;;;1.48;0.30;;;16.50;99.90;;;;;;5006690;28;20049;-67
2022/07/02 07:44:59;;;;;;;1.52;0.20;;;16.60;99.90;;;;;;5010176;28;20429;-67
2022/07/02 07:47:24;;;;;;;4.22;0.55;;;16.60;99.90;;;;;;5008984;28;20539;-67
2022/07/02 07:49:50;;;;;;;2.83;0.30;;;16.70;99.90;;;;;;5009839;28;20555;-67
2022/07/02 07:52:16;;;;;;;2.17;0.28;;;16.70;99.90;;;;;;5003210;28;20617;-67
2022/07/02 07:54:42;;;;;;;3.47;0.30;;;16.70;99.90;;;;;;5010767;28;20386;-67
2022/07/02 07:57:07;;;;;;;7.57;0.63;;;16.80;99.90;;;;;;5009795;28;20040;-66
2022/07/02 07:59:33;;;;;;;3.33;0.52;;;16.80;99.90;;;;;;5006605;28;20022;-66
2022/07/02 08:01:59;;;;;;;1.15;0.20;;;16.90;99.90;;;;;;5002856;28;20026;-66
2022/07/02 08:04:24;;;;;;;1.95;0.20;;;16.90;99.90;;;;;;5008997;28;20041;-66
2022/07/02 08:06:50;;;;;;;4.40;0.40;;;16.90;99.90;;;;;;5003338;28;20483;-66
2022/07/02 08:09:16;;;;;;;1.60;0.20;;;16.90;99.90;;;;;;5012844;28;20153;-66
2022/07/02 08:11:42;;;;;;;2.03;0.43;;;17.00;99.90;;;;;;5009461;28;20482;-67
2022/07/02 08:14:08;;;;;;;3.20;0.60;;;16.90;99.90;;;;;;5010917;28;20030;-67
2022/07/02 08:16:33;;;;;;;3.75;0.43;;;16.80;99.90;;;;;;5008537;28;20076;-67
2022/07/02 08:18:59;;;;;;;3.95;0.50;;;16.90;99.90;;;;;;5002343;28;20182;-68
2022/07/02 08:21:24;;;;;;;5.55;0.50;;;17.00;99.90;;;;;;5010305;28;20041;-68
2022/07/02 08:23:50;;;;;;;0.90;0.45;;;17.10;99.90;;;;;;5009581;28;20132;-67
2022/07/02 08:26:16;;;;;;;2.42;0.68;;;17.20;99.90;;;;;;5010088;28;20033;-67
2022/07/02 08:28:42;;;;;;;4.03;0.40;;;17.20;99.90;;;;;;4999850;28;20473;-67
2022/07/02 08:31:08;;;;;;;3.17;0.43;;;17.20;99.90;;;;;;5009543;28;20478;-66
2022/07/02 08:33:33;;;;;;;2.65;1.02;;;17.10;99.90;;;;;;5006212;28;20160;-66
2022/07/02 08:36:00;;;;;;;1.10;0.38;;;17.20;99.90;;;;;;5007272;28;20116;-67
2022/07/02 08:38:26;;;;;;;3.65;1.35;;;17.30;99.90;;;;;;5009132;28;20048;-67
2022/07/02 08:40:52;;;;;;;2.70;0.40;;;17.60;99.90;;;;;;5001641;28;20405;-67
2022/07/02 08:43:20;;;;;;;2.95;0.35;;;17.70;99.90;;;;;;5007992;28;20169;-65
2022/07/02 08:45:46;;;;;;;1.88;0.40;;;17.90;99.90;;;;;;5003712;28;20545;-65
2022/07/02 08:48:13;;;;;;;4.32;0.82;;;18.10;99.90;;;;;;5006138;28;20566;-67
2022/07/02 08:50:39;;;;;;;2.28;0.40;;;18.50;99.90;;;;;;5001263;28;20555;-67
2022/07/02 08:53:06;;;;;;;2.60;0.50;;;18.30;99.90;;;;;;5004068;28;20382;-67
2022/07/02 08:55:34;;;;;;;4.32;0.60;;;18.60;99.90;;;;;;5006277;28;20026;-67
2022/07/02 08:58:00;;;;;;;2.00;0.30;;;18.70;99.90;;;;;;5004915;28;20037;-67
2022/07/02 09:00:27;;;;;;;2.35;0.40;;;18.70;99.90;;;;;;5007648;28;20026;-68
2022/07/02 09:02:53;;;;;;;1.13;0.50;;;18.80;99.90;;;;;;4996591;28;20134;-68
2022/07/02 09:05:24;;;;;;;4.88;0.45;;;19.00;99.90;;;;;;5006959;28;20045;-67
2022/07/02 09:07:51;;;;;;;7.33;1.10;;;19.10;99.90;;;;;;4998314;28;20034;-68
2022/07/02 09:10:20;;;;;;;2.13;0.43;;;18.80;99.90;;;;;;5006607;28;20485;-68
2022/07/02 09:12:47;;;;;;;1.02;0.40;;;18.80;99.90;;;;;;5005716;28;20112;-63
2022/07/02 09:15:14;;;;;;;1.20;0.60;;;19.00;99.90;;;;;;5006505;28;20076;-61
2022/07/02 09:17:44;;;;;;;3.25;0.80;;;19.20;99.90;;;;;;5005106;28;20030;-60
2022/07/02 09:20:11;;;;;;;3.25;0.60;;;18.90;99.90;;;;;;5001655;28;20026;-63
2022/07/02 09:22:47;;;;;;;2.50;0.52;;;19.10;99.90;;;;;;5002571;28;20025;-58
2022/07/02 09:25:19;;;;;;;4.57;0.50;;;19.00;99.90;;;;;;5001957;28;20087;-64
2022/07/02 09:27:46;;;;;;;3.08;0.43;;;19.10;99.90;;;;;;5005404;28;20533;-63
2022/07/02 09:30:18;;;;;;;5.50;1.23;;;18.90;99.90;;;;;;5007676;28;20481;-63
2022/07/02 09:32:45;;;;;;;3.10;0.50;;;18.90;99.90;;;;;;5006283;28;20144;-64
2022/07/02 09:35:19;;;;;;;1.85;0.35;;;18.80;99.90;;;;;;5003699;28;20017;-64
2022/07/02 09:37:45;;;;;;;2.78;0.50;;;19.10;99.90;;;;;;5005919;28;20022;-64
2022/07/02 09:40:12;;;;;;;2.83;0.22;;;19.20;99.90;;;;;;5011166;28;20052;-64
2022/07/02 09:42:37;;;;;;;2.80;0.50;;;19.30;99.90;;;;;;5006819;28;20025;-63
2022/07/02 09:45:05;;;;;;;1.00;0.30;;;19.30;99.90;;;;;;5009451;28;20030;-64
2022/07/02 09:47:36;;;;;;;0.70;0.40;;;19.40;99.90;;;;;;5007043;28;20021;-64
2022/07/02 09:50:04;;;;;;;1.98;0.43;;;19.30;99.90;;;;;;5009511;28;20030;-64
2022/07/02 09:52:30;;;;;;;1.55;0.40;;;19.40;99.90;;;;;;5007441;28;20101;-64
2022/07/02 09:54:56;;;;;;;4.88;0.50;;;19.30;99.90;;;;;;5006977;28;20036;-64
2022/07/02 09:57:22;;;;;;;0.93;0.22;;;19.50;99.90;;;;;;5008786;28;20025;-64
2022/07/02 09:59:48;;;;;;;0.80;0.55;;;19.60;99.90;;;;;;5003515;28;20398;-63
2022/07/02 10:02:23;;;;;;;0.77;0.30;;;19.40;99.90;;;;;;5003550;28;20064;-64
2022/07/02 10:04:56;;;;;;;1.17;0.30;;;19.50;99.90;;;;;;5004277;28;20261;-64
2022/07/02 10:07:23;;;;;;;1.90;0.40;;;19.30;99.90;;;;;;5009017;28;20101;-64
2022/07/02 10:09:52;;;;;;;1.95;0.20;;;19.30;99.90;;;;;;5007484;28;20033;-64
2022/07/02 10:12:19;;;;;;;1.65;0.40;;;19.20;99.90;;;;;;5007699;28;20030;-64
2022/07/02 10:14:46;;;;;;;1.20;0.35;;;19.10;99.90;;;;;;5002079;28;20031;-64
2022/07/02 10:17:15;;;;;;;0.95;0.20;;;19.00;99.90;;;;;;5008503;28;20022;-64
2022/07/02 10:19:41;;;;;;;1.33;0.30;;;18.90;99.90;;;;;;5008978;28;20121;-64
2022/07/02 10:22:08;;;;;;;2.15;0.30;;;19.20;99.90;;;;;;5012597;28;21388;-65
2022/07/02 10:24:34;;;;;;;1.92;0.30;;;19.30;99.90;;;;;;5009643;28;20046;-64
2022/07/02 10:27:01;;;;;;;0.73;0.30;;;19.30;99.90;;;;;;5003055;28;20030;-64
2022/07/02 10:29:28;;;;;;;2.22;0.40;;;19.10;99.90;;;;;;5012809;28;20026;-64
2022/07/02 10:32:21;;;;;;;3.17;0.63;;;19.20;99.90;;;;;;5010732;28;20495;-65
2022/07/02 10:35:10;;;;;;;3.15;0.30;;;19.60;99.90;;;;;;5005809;28;20038;-64
2022/07/02 10:37:40;;;;;;;3.22;0.55;;;19.50;99.90;;;;;;5007172;28;20114;-62
2022/07/02 10:40:07;;;;;;;2.33;0.30;;;19.40;99.90;;;;;;5009235;28;20025;-63
2022/07/02 10:42:44;;;;;;;5.50;0.95;;;19.20;99.90;;;;;;5009089;28;20030;-62
2022/07/02 10:45:14;;;;;;;1.77;0.30;;;19.20;99.90;;;;;;5000841;28;20480;-63
2022/07/02 10:48:01;;;;;;;1.80;0.40;;;19.30;99.90;;;;;;5012359;28;20046;-63
2022/07/02 10:50:47;;;;;;;2.15;0.30;;;19.50;99.90;;;;;;5009080;28;20033;-65
2022/07/02 10:53:15;;;;;;;5.22;0.57;;;19.60;99.90;;;;;;5012982;28;20075;-63
2022/07/02 10:55:43;;;;;;;1.48;0.30;;;19.80;99.90;;;;;;5005721;28;20129;-63
2022/07/02 10:58:22;;;;;;;1.52;0.57;;;19.80;99.90;;;;;;5007097;28;20037;-64
2022/07/02 11:00:48;;;;;;;1.52;0.30;;;19.80;99.90;;;;;;5010710;28;20080;-64
2022/07/02 11:03:16;;;;;;;1.63;0.30;;;19.50;99.90;;;;;;5012651;28;20124;-64
2022/07/02 11:05:58;;;;;;;1.92;0.43;;;19.70;99.90;;;;;;5010873;28;20480;-64
2022/07/02 11:08:44;;;;;;;;;;;19.90;99.90;;;;;;5012752;28;20548;-64
2022/07/02 11:11:16;;;;;;;2.42;0.30;;;20.00;99.90;;;;;;5008038;28;20308;-63
2022/07/02 11:13:55;;;;;;;3.03;0.52;;;19.90;99.90;;;;;;5010540;28;20461;-63
2022/07/02 11:16:37;;;;;;;5.07;0.70;;;20.10;99.90;;;;;;5007640;28;20130;-63
2022/07/02 11:19:05;;;;;;;3.17;0.50;;;20.50;99.90;;;;;;5007644;28;20039;-63
2022/07/02 11:21:31;;;;;;;5.03;0.60;;;20.70;99.90;;;;;;5010500;28;20030;-65
2022/07/02 11:23:57;;;;;;;1.65;0.40;;;20.90;99.90;;;;;;5011882;28;20053;-64
2022/07/02 11:26:25;;;;;;;3.50;0.50;;;20.90;99.90;;;;;;5008754;28;20046;-63
2022/07/02 11:28:52;;;;;;;3.63;0.32;;;21.10;99.90;;;;;;5006492;28;20026;-63
2022/07/02 11:31:19;;;;;;;3.00;0.40;;;21.40;99.00;;;;;;5011020;28;20071;-63
2022/07/02 11:33:52;;;;;;;2.22;0.80;;;21.50;99.00;;;;;;5010303;28;20049;-64
2022/07/02 11:36:19;;;;;;;2.38;0.40;;;22.50;96.10;;;;;;5011690;28;20029;-64
2022/07/02 11:38:47;;;;;;;2.55;0.50;;;22.20;95.00;;;;;;5009861;28;20021;-63
2022/07/02 11:41:23;;;;;;;2.20;0.40;;;22.20;95.80;;;;;;5003973;28;20032;-63
2022/07/02 11:43:51;;;;;;;1.60;0.43;;;22.60;95.20;;;;;;5009797;28;20573;-63
2022/07/02 11:46:20;;;;;;;4.10;0.50;;;22.20;94.50;;;;;;5011665;28;20498;-64
2022/07/02 11:48:47;;;;;;;1.65;0.30;;;22.40;94.50;;;;;;5010007;28;20429;-63
2022/07/02 11:51:13;;;;;;;1.70;0.38;;;22.30;92.90;;;;;;5009390;28;20120;-64
2022/07/02 11:53:38;;;;;;;3.67;0.30;;;22.30;93.70;;;;;;5009979;28;20121;-64
2022/07/02 11:56:13;;;;;;;2.08;0.50;;;22.30;93.90;;;;;;5011510;28;20112;-63
2022/07/02 11:58:44;;;;;;;3.58;0.45;;;22.50;93.60;;;;;;5010081;28;20136;-64
2022/07/02 12:01:20;;;;;;;5.00;0.40;;;22.60;94.70;;;;;;5005040;28;20041;-64
2022/07/02 12:03:47;;;;;;;2.80;0.65;;;22.10;96.40;;;;;;5009459;28;20092;-63
2022/07/02 12:06:13;;;;;;;3.08;0.35;;;22.00;97.30;;;;;;5010665;28;20030;-63
2022/07/02 12:08:40;;;;;;;3.25;0.40;;;21.80;96.40;;;;;;5009764;28;20048;-63
2022/07/02 12:11:17;;;;;;;3.38;1.30;;;22.00;96.80;;;;;;4998743;28;20022;-62
2022/07/02 12:13:44;;;;;;;3.60;0.40;;;22.40;96.20;;;;;;5008897;28;20084;-64
2022/07/02 12:16:12;;;;;;;3.08;0.63;;;22.20;95.30;;;;;;5010949;28;20125;-64
2022/07/02 12:18:37;;;;;;;3.83;0.40;;;22.30;94.30;;;;;;5009399;28;20029;-64
2022/07/02 12:21:12;;;;;;;1.80;0.65;;;22.50;94.50;;;;;;5010862;28;20030;-64
2022/07/02 12:23:50;;;;;;;2.35;0.70;;;22.60;94.40;;;;;;5009406;28;20045;-64
2022/07/02 12:26:23;;;;;;;2.15;0.32;;;22.80;95.30;;;;;;5000203;28;20032;-64
2022/07/02 12:31:50;;;;;;;3.08;0.40;;;22.70;92.60;;;;;;5006055;28;20064;-63
2022/07/02 12:34:18;;;;;;;6.18;0.63;;;22.70;95.70;;;;;;5011018;28;20126;-63
2022/07/02 12:36:48;;;;;;;2.72;0.40;;;22.90;95.00;;;;;;5009021;28;20450;-63
2022/07/02 12:39:14;;;;;;;3.70;0.40;;;22.80;94.40;;;;;;5009924;28;20036;-64
2022/07/02 12:41:40;;;;;;;3.80;0.45;;;22.90;96.00;;;;;;5005573;28;20359;-64
2022/07/02 12:44:14;;;;;;;2.47;0.40;;;23.30;95.00;;;;;;5011392;28;20099;-63
2022/07/02 12:46:51;;;;;;;3.17;0.38;;;23.50;94.60;;;;;;5008194;28;20527;-63
2022/07/02 12:49:22;;;;;;;3.38;0.60;;;23.40;94.60;;;;;;5009809;28;20133;-63
2022/07/02 12:51:51;;;;;;;3.17;0.77;;;23.70;94.30;;;;;;5008050;28;20030;-63
2022/07/02 12:54:17;;;;;;;2.15;0.88;;;23.30;94.70;;;;;;5010380;28;20068;-63
2022/07/02 12:56:43;;;;;;;4.20;0.40;;;23.10;95.20;;;;;;5008336;28;20022;-63
2022/07/02 12:59:08;;;;;;;4.03;0.45;;;23.30;95.70;;;;;;5009145;28;20032;-62